createdAt,value
2023-02-22T00:00:08.194Z,6.59
2023-02-22T00:00:48.023Z,6.59
2023-02-22T00:01:48.296Z,6.59
2023-02-22T00:02:47.479Z,6.59
2023-02-22T00:03:47.460Z,6.59
2023-02-22T00:04:46.834Z,6.58
2023-02-22T00:05:48.543Z,6.58
2023-02-22T00:06:47.001Z,6.59
2023-02-22T00:07:46.733Z,6.58
2023-02-22T00:08:47.992Z,6.58
2023-02-22T00:10:08.759Z,6.55
2023-02-22T00:10:47.097Z,6.55
2023-02-22T00:11:46.913Z,6.54
2023-02-22T00:12:46.900Z,6.54
2023-02-22T00:13:47.924Z,6.52
2023-02-22T00:14:47.775Z,6.54
2023-02-22T00:15:47.173Z,6.54
2023-02-22T00:16:48.364Z,6.55
2023-02-22T00:17:46.750Z,6.54
2023-02-22T00:18:47.116Z,6.55
2023-02-22T00:20:07.877Z,6.56
2023-02-22T00:20:46.695Z,6.55
2023-02-22T00:21:47.471Z,6.55
2023-02-22T00:22:46.859Z,6.55
2023-02-22T00:23:46.733Z,6.55
2023-02-22T00:24:47.593Z,6.56
2023-02-22T00:25:46.727Z,6.54
2023-02-22T00:26:48.481Z,6.51
2023-02-22T00:27:47.486Z,6.52
2023-02-22T00:28:48.039Z,6.52
2023-02-22T00:30:07.901Z,6.52
2023-02-22T00:30:46.725Z,6.51
2023-02-22T00:31:48.469Z,6.49
2023-02-22T00:32:46.768Z,6.49
2023-02-22T00:33:47.637Z,6.48
2023-02-22T00:34:47.596Z,6.49
2023-02-22T00:35:46.770Z,6.51
2023-02-22T00:36:46.684Z,6.51
2023-02-22T00:37:48.263Z,6.51
2023-02-22T00:38:46.658Z,6.51
2023-02-22T00:40:06.409Z,6.51
2023-02-22T00:40:48.109Z,6.52
2023-02-22T00:41:46.780Z,6.49
2023-02-22T00:42:48.224Z,6.49
2023-02-22T00:43:47.978Z,6.51
2023-02-22T00:44:47.490Z,6.49
2023-02-22T00:45:48.105Z,6.48
2023-02-22T00:46:47.858Z,6.52
2023-02-22T00:47:46.869Z,6.51
2023-02-22T00:48:47.595Z,6.49
2023-02-22T00:50:07.827Z,6.51
2023-02-22T00:50:46.745Z,6.49
2023-02-22T00:51:46.739Z,6.46
2023-02-22T00:52:46.391Z,6.48
2023-02-22T00:53:46.783Z,6.44
2023-02-22T00:54:46.559Z,6.44
2023-02-22T00:55:46.983Z,6.40
2023-02-22T00:56:48.036Z,6.43
2023-02-22T00:57:47.802Z,6.41
2023-02-22T00:58:48.112Z,6.43
2023-02-22T01:00:07.414Z,6.43
2023-02-22T01:00:46.230Z,6.41
2023-02-22T01:01:46.590Z,6.40
2023-02-22T01:02:46.373Z,6.40
2023-02-22T01:03:46.752Z,6.41
2023-02-22T01:04:46.545Z,6.37
2023-02-22T01:05:46.307Z,6.38
2023-02-22T01:06:46.993Z,6.38
2023-02-22T01:07:46.442Z,6.40
2023-02-22T01:08:47.660Z,6.41
2023-02-22T01:10:08.405Z,6.41
2023-02-22T01:10:46.354Z,6.41
2023-02-22T01:11:46.614Z,6.41
2023-02-22T01:12:47.000Z,6.38
2023-02-22T01:13:46.195Z,6.37
2023-02-22T01:14:46.604Z,6.38
2023-02-22T01:15:46.286Z,6.37
2023-02-22T01:16:47.541Z,6.37
2023-02-22T01:17:46.985Z,6.40
2023-02-22T01:18:47.022Z,6.40
2023-02-22T01:20:07.440Z,6.43
2023-02-22T01:20:45.494Z,6.41
2023-02-22T01:21:46.305Z,6.40
2023-02-22T01:22:46.077Z,6.37
2023-02-22T01:23:47.020Z,6.36
2023-02-22T01:24:46.995Z,6.36
2023-02-22T01:25:46.173Z,6.34
2023-02-22T01:26:47.695Z,6.36
2023-02-22T01:27:47.475Z,6.34
2023-02-22T01:28:46.331Z,6.34
2023-02-22T01:30:07.133Z,6.34
2023-02-22T01:30:47.460Z,6.33
2023-02-22T01:31:46.223Z,6.33
2023-02-22T01:32:47.398Z,6.33
2023-02-22T01:33:46.291Z,6.31
2023-02-22T01:34:46.980Z,6.34
2023-02-22T01:35:46.527Z,6.33
2023-02-22T01:36:46.226Z,6.34
2023-02-22T01:37:46.058Z,6.34
2023-02-22T01:38:46.363Z,6.36
2023-02-22T01:40:08.005Z,6.37
2023-02-22T01:40:45.879Z,6.37
2023-02-22T01:41:46.499Z,6.38
2023-02-22T01:42:45.972Z,6.37
2023-02-22T01:43:46.283Z,6.37
2023-02-22T01:44:46.076Z,6.36
2023-02-22T01:45:45.948Z,6.36
2023-02-22T01:46:47.603Z,6.33
2023-02-22T01:47:46.495Z,6.36
2023-02-22T01:48:47.182Z,6.36
2023-02-22T01:50:08.010Z,6.36
2023-02-22T01:50:47.249Z,6.34
2023-02-22T01:51:46.269Z,6.36
2023-02-22T01:52:45.975Z,6.31
2023-02-22T01:53:46.507Z,6.31
2023-02-22T01:54:46.026Z,6.30
2023-02-22T01:55:45.893Z,6.27
2023-02-22T01:56:48.063Z,6.22
2023-02-22T01:57:45.941Z,6.25
2023-02-22T01:58:45.705Z,6.28
2023-02-22T02:00:06.936Z,6.27
2023-02-22T02:00:45.797Z,6.28
2023-02-22T02:01:45.593Z,6.25
2023-02-22T02:02:45.854Z,6.22
2023-02-22T02:03:45.769Z,6.22
2023-02-22T02:04:46.009Z,6.21
2023-02-22T02:05:46.507Z,6.22
2023-02-22T02:06:46.487Z,6.21
2023-02-22T02:07:45.868Z,6.22
2023-02-22T02:08:47.040Z,6.22
2023-02-22T02:10:06.841Z,6.27
2023-02-22T02:10:45.725Z,6.25
2023-02-22T02:11:46.511Z,6.22
2023-02-22T02:12:47.161Z,6.21
2023-02-22T02:13:45.544Z,6.21
2023-02-22T02:14:45.909Z,6.21
2023-02-22T02:15:45.637Z,6.18
2023-02-22T02:16:45.962Z,6.15
2023-02-22T02:17:46.514Z,6.15
2023-02-22T02:18:46.920Z,6.15
2023-02-22T02:20:06.722Z,6.15
2023-02-22T02:20:46.987Z,6.15
2023-02-22T02:21:45.898Z,6.14
2023-02-22T02:22:46.535Z,6.17
2023-02-22T02:23:45.511Z,6.18
2023-02-22T02:24:45.804Z,6.18
2023-02-22T02:25:45.731Z,6.19
2023-02-22T02:26:45.416Z,6.21
2023-02-22T02:27:45.701Z,6.18
2023-02-22T02:28:46.034Z,6.19
2023-02-22T02:30:06.710Z,6.18
2023-02-22T02:30:46.924Z,6.19
2023-02-22T02:31:45.416Z,6.19
2023-02-22T02:32:45.678Z,6.21
2023-02-22T02:33:45.392Z,6.22
2023-02-22T02:34:46.024Z,6.22
2023-02-22T02:35:45.496Z,6.22
2023-02-22T02:36:46.663Z,6.22
2023-02-22T02:37:45.576Z,6.25
2023-02-22T02:38:45.471Z,6.25
2023-02-22T02:40:06.601Z,6.27
2023-02-22T02:40:46.845Z,6.25
2023-02-22T02:41:46.635Z,6.25
2023-02-22T02:42:45.505Z,6.22
2023-02-22T02:43:45.344Z,6.21
2023-02-22T02:44:46.996Z,6.18
2023-02-22T02:45:46.036Z,6.15
2023-02-22T02:46:45.172Z,6.14
2023-02-22T02:47:46.106Z,6.14
2023-02-22T02:48:45.210Z,6.14
2023-02-22T02:50:06.473Z,6.12
2023-02-22T02:50:45.317Z,6.15
2023-02-22T02:51:46.038Z,6.15
2023-02-22T02:52:45.401Z,6.12
2023-02-22T02:53:45.252Z,6.09
2023-02-22T02:54:45.469Z,6.08
2023-02-22T02:55:46.648Z,6.04
2023-02-22T02:56:45.485Z,6.09
2023-02-22T02:57:46.044Z,6.09
2023-02-22T02:58:45.080Z,6.06
2023-02-22T03:00:06.360Z,6.04
2023-02-22T03:00:46.600Z,6.01
2023-02-22T03:01:46.182Z,6.00
2023-02-22T03:02:45.293Z,5.99
2023-02-22T03:03:45.100Z,5.99
2023-02-22T03:04:46.780Z,6.00
2023-02-22T03:05:45.150Z,6.00
2023-02-22T03:06:44.959Z,6.00
2023-02-22T03:07:45.343Z,6.01
2023-02-22T03:08:45.076Z,5.97
2023-02-22T03:10:06.053Z,5.96
2023-02-22T03:10:46.523Z,5.97
2023-02-22T03:11:44.887Z,5.96
2023-02-22T03:12:45.172Z,5.97
2023-02-22T03:13:46.382Z,5.96
2023-02-22T03:14:46.632Z,5.96
2023-02-22T03:15:45.543Z,5.96
2023-02-22T03:16:46.702Z,5.96
2023-02-22T03:17:45.070Z,5.96
2023-02-22T03:18:45.525Z,5.94
2023-02-22T03:20:06.584Z,5.96
2023-02-22T03:20:44.911Z,5.94
2023-02-22T03:21:45.545Z,5.94
2023-02-22T03:22:45.027Z,5.93
2023-02-22T03:23:44.796Z,5.94
2023-02-22T03:24:45.079Z,5.96
2023-02-22T03:25:44.919Z,5.96
2023-02-22T03:26:45.218Z,5.97
2023-02-22T03:27:45.563Z,5.97
2023-02-22T03:28:44.806Z,5.96
2023-02-22T03:30:06.634Z,5.93
2023-02-22T03:30:46.381Z,5.93
2023-02-22T03:31:46.578Z,5.93
2023-02-22T03:32:46.378Z,5.93
2023-02-22T03:33:45.568Z,5.90
2023-02-22T03:34:45.048Z,5.91
2023-02-22T03:35:44.811Z,5.90
2023-02-22T03:36:45.787Z,5.89
2023-02-22T03:37:44.952Z,5.89
2023-02-22T03:38:44.704Z,5.89
2023-02-22T03:40:05.579Z,5.90
2023-02-22T03:40:46.239Z,5.90
2023-02-22T03:41:45.131Z,5.89
2023-02-22T03:42:44.910Z,5.85
2023-02-22T03:43:44.766Z,5.83
2023-02-22T03:44:45.001Z,5.83
2023-02-22T03:45:45.568Z,5.89
2023-02-22T03:46:44.558Z,5.89
2023-02-22T03:47:44.833Z,5.91
2023-02-22T03:48:44.641Z,5.93
2023-02-22T03:50:06.382Z,5.91
2023-02-22T03:50:44.733Z,5.91
2023-02-22T03:51:45.577Z,5.90
2023-02-22T03:52:44.794Z,5.90
2023-02-22T03:53:45.977Z,5.91
2023-02-22T03:54:44.882Z,5.93
2023-02-22T03:55:44.700Z,5.93
2023-02-22T03:56:45.387Z,5.91
2023-02-22T03:57:45.585Z,5.91
2023-02-22T03:58:45.964Z,5.89
2023-02-22T04:00:06.323Z,5.90
2023-02-22T04:00:44.850Z,5.89
2023-02-22T04:01:44.468Z,5.91
2023-02-22T04:02:45.685Z,5.90
2023-02-22T04:03:44.565Z,5.91
2023-02-22T04:04:44.910Z,5.89
2023-02-22T04:05:44.638Z,5.89
2023-02-22T04:06:44.390Z,5.89
2023-02-22T04:07:46.080Z,5.86
2023-02-22T04:08:44.387Z,5.86
2023-02-22T04:10:06.128Z,5.86
2023-02-22T04:10:44.400Z,5.89
2023-02-22T04:11:44.726Z,5.86
2023-02-22T04:12:44.455Z,5.86
2023-02-22T04:13:46.136Z,5.85
2023-02-22T04:14:44.476Z,5.85
2023-02-22T04:15:44.758Z,5.86
2023-02-22T04:16:44.492Z,5.82
2023-02-22T04:17:44.255Z,5.81
2023-02-22T04:18:44.528Z,5.78
2023-02-22T04:20:05.105Z,5.78
2023-02-22T04:20:45.991Z,5.78
2023-02-22T04:21:44.332Z,5.75
2023-02-22T04:22:44.621Z,5.78
2023-02-22T04:23:44.293Z,5.81
2023-02-22T04:24:44.561Z,5.81
2023-02-22T04:25:44.280Z,5.82
2023-02-22T04:26:44.562Z,5.82
2023-02-22T04:27:44.347Z,5.82
2023-02-22T04:28:44.568Z,5.82
2023-02-22T04:30:05.871Z,5.83
2023-02-22T04:30:44.105Z,5.83
2023-02-22T04:31:44.382Z,5.85
2023-02-22T04:32:44.092Z,5.85
2023-02-22T04:33:44.346Z,5.82
2023-02-22T04:34:44.087Z,5.83
2023-02-22T04:35:44.349Z,5.82
2023-02-22T04:36:44.113Z,5.82
2023-02-22T04:37:45.088Z,5.82
2023-02-22T04:38:44.103Z,5.85
2023-02-22T04:40:05.822Z,5.86
2023-02-22T04:40:44.128Z,5.86
2023-02-22T04:41:44.355Z,5.86
2023-02-22T04:42:44.126Z,5.89
2023-02-22T04:43:44.375Z,5.89
2023-02-22T04:44:44.120Z,5.90
2023-02-22T04:45:44.365Z,5.90
2023-02-22T04:46:44.129Z,5.91
2023-02-22T04:47:44.399Z,5.91
2023-02-22T04:48:44.103Z,5.91
2023-02-22T04:50:04.504Z,5.90
2023-02-22T04:50:44.175Z,5.91
2023-02-22T04:51:43.912Z,5.90
2023-02-22T04:52:44.167Z,5.90
2023-02-22T04:53:43.919Z,5.91
2023-02-22T04:54:44.180Z,5.90
2023-02-22T04:55:43.905Z,5.91
2023-02-22T04:56:44.146Z,5.93
2023-02-22T04:57:43.879Z,5.93
2023-02-22T04:58:44.166Z,5.91
2023-02-22T05:00:05.436Z,5.90
2023-02-22T05:00:44.219Z,5.90
2023-02-22T05:01:43.948Z,5.90
2023-02-22T05:02:44.218Z,5.91
2023-02-22T05:03:43.937Z,5.90
2023-02-22T05:04:44.206Z,5.90
2023-02-22T05:05:43.930Z,5.89
2023-02-22T05:06:44.208Z,5.85
2023-02-22T05:07:43.924Z,5.85
2023-02-22T05:08:44.186Z,5.83
2023-02-22T05:10:05.409Z,5.81
2023-02-22T05:10:43.704Z,5.82
2023-02-22T05:11:44.045Z,5.81
2023-02-22T05:12:43.702Z,5.79
2023-02-22T05:13:43.943Z,5.81
2023-02-22T05:14:43.787Z,5.81
2023-02-22T05:15:44.055Z,5.79
2023-02-22T05:16:43.711Z,5.79
2023-02-22T05:17:43.960Z,5.79
2023-02-22T05:18:43.727Z,5.78
2023-02-22T05:20:04.625Z,5.79
2023-02-22T05:20:43.810Z,5.79
2023-02-22T05:21:44.075Z,5.79
2023-02-22T05:22:43.826Z,5.81
2023-02-22T05:23:43.551Z,5.81
2023-02-22T05:24:43.808Z,5.81
2023-02-22T05:25:44.039Z,5.81
2023-02-22T05:26:43.824Z,5.79
2023-02-22T05:27:43.514Z,5.82
2023-02-22T05:28:43.795Z,5.82
2023-02-22T05:30:05.064Z,5.85
2023-02-22T05:30:43.957Z,5.83
2023-02-22T05:31:43.731Z,5.83
2023-02-22T05:32:46.112Z,5.85
2023-02-22T05:33:43.602Z,5.83
2023-02-22T05:34:43.850Z,5.83
2023-02-22T05:35:43.583Z,5.83
2023-02-22T05:36:43.857Z,5.83
2023-02-22T05:37:43.604Z,5.83
2023-02-22T05:38:43.865Z,5.83
2023-02-22T05:40:05.084Z,5.85
2023-02-22T05:40:43.399Z,5.83
2023-02-22T05:41:43.621Z,5.82
2023-02-22T05:42:43.873Z,5.82
2023-02-22T05:43:43.606Z,5.83
2023-02-22T05:44:43.361Z,5.82
2023-02-22T05:45:43.602Z,5.82
2023-02-22T05:46:43.357Z,5.82
2023-02-22T05:47:43.606Z,5.81
2023-02-22T05:48:43.367Z,5.76
2023-02-22T05:50:05.076Z,5.76
2023-02-22T05:50:43.398Z,5.76
2023-02-22T05:51:43.634Z,5.75
2023-02-22T05:52:43.420Z,5.76
2023-02-22T05:53:43.643Z,5.75
2023-02-22T05:54:43.377Z,5.72
2023-02-22T05:55:45.630Z,5.71
2023-02-22T05:56:43.394Z,5.71
2023-02-22T05:57:43.635Z,5.68
2023-02-22T05:58:43.375Z,5.67
2023-02-22T06:00:04.164Z,5.67
2023-02-22T06:00:43.416Z,5.74
2023-02-22T06:01:43.160Z,5.67
2023-02-22T06:02:43.454Z,5.67
2023-02-22T06:03:43.163Z,5.67
2023-02-22T06:04:43.430Z,5.67
2023-02-22T06:05:43.217Z,5.67
2023-02-22T06:06:43.401Z,5.65
2023-02-22T06:07:43.139Z,5.67
2023-02-22T06:08:43.430Z,5.67
2023-02-22T06:10:04.115Z,5.67
2023-02-22T06:10:43.446Z,5.67
2023-02-22T06:11:43.182Z,5.67
2023-02-22T06:12:43.408Z,5.68
2023-02-22T06:13:43.164Z,5.68
2023-02-22T06:14:43.410Z,5.72
2023-02-22T06:15:43.160Z,5.74
2023-02-22T06:16:43.418Z,5.74
2023-02-22T06:17:43.155Z,5.75
2023-02-22T06:18:43.415Z,5.75
2023-02-22T06:20:03.180Z,5.74
2023-02-22T06:20:43.429Z,5.74
2023-02-22T06:21:43.161Z,5.74
2023-02-22T06:22:43.411Z,5.72
2023-02-22T06:23:43.155Z,5.74
2023-02-22T06:24:43.376Z,5.72
2023-02-22T06:25:44.801Z,5.72
2023-02-22T06:26:44.151Z,5.68
2023-02-22T06:27:44.430Z,5.67
2023-02-22T06:28:44.782Z,5.65
2023-02-22T06:30:03.070Z,5.65
2023-02-22T06:30:44.925Z,5.67
2023-02-22T06:31:44.754Z,5.64
2023-02-22T06:32:43.187Z,5.65
2023-02-22T06:33:44.362Z,5.67
2023-02-22T06:34:44.657Z,5.68
2023-02-22T06:35:43.658Z,5.67
2023-02-22T06:36:44.747Z,5.68
2023-02-22T06:37:44.535Z,5.67
2023-02-22T06:38:44.434Z,5.64
2023-02-22T06:40:05.655Z,5.64
2023-02-22T06:40:44.471Z,5.63
2023-02-22T06:41:43.662Z,5.61
2023-02-22T06:42:44.577Z,5.63
2023-02-22T06:43:44.349Z,5.64
2023-02-22T06:44:44.692Z,5.64
2023-02-22T06:45:44.590Z,5.65
2023-02-22T06:46:42.852Z,5.64
2023-02-22T06:47:43.093Z,5.65
2023-02-22T06:48:42.849Z,5.67
2023-02-22T06:50:03.120Z,5.68
2023-02-22T06:50:42.855Z,5.71
2023-02-22T06:51:43.088Z,5.72
2023-02-22T06:52:42.831Z,5.74
2023-02-22T06:53:43.088Z,5.72
2023-02-22T06:54:42.829Z,5.72
2023-02-22T06:55:43.098Z,5.74
2023-02-22T06:56:42.815Z,5.71
2023-02-22T06:57:43.065Z,5.74
2023-02-22T06:58:42.820Z,5.72
2023-02-22T07:00:03.081Z,5.74
2023-02-22T07:00:42.894Z,5.75
2023-02-22T07:01:42.579Z,5.74
2023-02-22T07:02:42.879Z,5.74
2023-02-22T07:03:42.617Z,5.71
2023-02-22T07:04:43.653Z,5.74
2023-02-22T07:05:42.599Z,5.71
2023-02-22T07:06:42.875Z,5.68
2023-02-22T07:07:42.641Z,5.67
2023-02-22T07:08:43.572Z,5.64
2023-02-22T07:10:03.510Z,5.63
2023-02-22T07:10:42.016Z,5.64
2023-02-22T07:11:41.997Z,5.63
2023-02-22T07:12:41.977Z,5.64
2023-02-22T07:13:41.959Z,5.63
2023-02-22T07:14:41.957Z,5.63
2023-02-22T07:15:41.978Z,5.65
2023-02-22T07:16:42.002Z,5.67
2023-02-22T07:17:41.983Z,5.68
2023-02-22T07:18:41.945Z,5.71
2023-02-22T07:20:02.008Z,5.72
2023-02-22T07:20:41.894Z,5.72
2023-02-22T07:21:41.880Z,5.72
2023-02-22T07:22:41.883Z,5.74
2023-02-22T07:23:41.885Z,5.78
2023-02-22T07:24:42.680Z,5.76
2023-02-22T07:25:42.424Z,5.78
2023-02-22T07:26:44.200Z,5.78
2023-02-22T07:27:42.515Z,5.78
2023-02-22T07:28:42.757Z,5.78
2023-02-22T07:30:04.033Z,5.75
2023-02-22T07:30:42.419Z,5.78
2023-02-22T07:31:42.596Z,5.78
2023-02-22T07:32:42.432Z,5.79
2023-02-22T07:33:42.620Z,5.79
2023-02-22T07:34:42.384Z,5.81
2023-02-22T07:35:42.630Z,5.83
2023-02-22T07:36:42.404Z,5.86
2023-02-22T07:37:42.613Z,5.86
2023-02-22T07:38:42.381Z,5.86
2023-02-22T07:40:03.210Z,5.86
2023-02-22T07:40:42.426Z,5.90
2023-02-22T07:41:42.665Z,5.90
2023-02-22T07:42:42.407Z,5.91
2023-02-22T07:43:42.639Z,5.91
2023-02-22T07:44:42.410Z,5.93
2023-02-22T07:45:42.643Z,5.96
2023-02-22T07:46:42.382Z,5.97
2023-02-22T07:47:42.116Z,5.99
2023-02-22T07:48:42.390Z,6.00
2023-02-22T07:50:04.095Z,6.03
2023-02-22T07:50:42.424Z,6.01
2023-02-22T07:51:42.159Z,6.01
2023-02-22T07:52:42.418Z,6.03
2023-02-22T07:53:42.180Z,6.01
2023-02-22T07:54:42.426Z,6.04
2023-02-22T07:55:42.142Z,6.08
2023-02-22T07:56:42.394Z,6.11
2023-02-22T07:57:42.152Z,6.12
2023-02-22T07:58:42.425Z,6.14
2023-02-22T08:00:03.637Z,6.15
2023-02-22T08:00:42.440Z,6.17
2023-02-22T08:01:42.202Z,6.19
2023-02-22T08:02:42.500Z,6.25
2023-02-22T08:03:42.210Z,6.22
2023-02-22T08:04:42.445Z,6.21
2023-02-22T08:05:42.191Z,6.27
2023-02-22T08:06:42.437Z,6.30
2023-02-22T08:07:42.215Z,6.31
2023-02-22T08:08:41.445Z,6.31
2023-02-22T08:10:02.727Z,6.31
2023-02-22T08:10:42.006Z,6.30
2023-02-22T08:11:42.260Z,6.36
2023-02-22T08:12:41.990Z,6.40
2023-02-22T08:13:42.268Z,6.43
2023-02-22T08:14:42.022Z,6.46
2023-02-22T08:15:42.261Z,6.46
2023-02-22T08:16:42.076Z,6.48
2023-02-22T08:17:42.257Z,6.51
2023-02-22T08:18:42.011Z,6.54
2023-02-22T08:20:03.923Z,6.59
2023-02-22T08:20:42.189Z,6.59
2023-02-22T08:21:41.959Z,6.64
2023-02-22T08:22:42.207Z,6.73
2023-02-22T08:23:41.960Z,6.76
2023-02-22T08:24:42.195Z,6.84
2023-02-22T08:25:41.981Z,6.89
2023-02-22T08:26:42.208Z,6.94
2023-02-22T08:27:41.988Z,6.98
2023-02-22T08:28:41.704Z,7.02
2023-02-22T08:30:03.464Z,7.10
2023-02-22T08:30:41.801Z,7.13
2023-02-22T08:31:42.033Z,7.24
2023-02-22T08:32:41.872Z,7.32
2023-02-22T08:33:42.010Z,7.37
2023-02-22T08:34:41.765Z,7.37
2023-02-22T08:35:42.027Z,7.39
2023-02-22T08:36:41.771Z,7.45
2023-02-22T08:37:42.022Z,7.52
2023-02-22T08:38:41.745Z,7.60
2023-02-22T08:40:03.510Z,7.57
2023-02-22T08:40:41.810Z,7.58
2023-02-22T08:41:42.051Z,7.67
2023-02-22T08:42:41.798Z,7.69
2023-02-22T08:43:42.066Z,7.82
2023-02-22T08:44:41.112Z,7.77
2023-02-22T08:45:41.121Z,7.85
2023-02-22T08:46:41.053Z,7.98
2023-02-22T08:47:41.068Z,8.19
2023-02-22T08:48:41.016Z,8.34
2023-02-22T08:50:01.108Z,8.44
2023-02-22T08:50:40.994Z,8.56
2023-02-22T08:51:41.016Z,8.68
2023-02-22T08:52:41.743Z,8.81
2023-02-22T08:53:40.985Z,9.04
2023-02-22T08:54:40.960Z,9.29
2023-02-22T08:55:41.729Z,9.48
2023-02-22T08:56:41.474Z,9.71
2023-02-22T08:57:41.767Z,9.91
2023-02-22T08:58:41.495Z,10.01
2023-02-22T09:00:02.854Z,10.15
2023-02-22T09:00:41.631Z,10.25
2023-02-22T09:01:42.840Z,10.33
2023-02-22T09:02:41.642Z,10.18
2023-02-22T09:03:41.397Z,10.14
2023-02-22T09:04:41.614Z,10.04
2023-02-22T09:05:41.416Z,10.04
2023-02-22T09:06:41.617Z,10.02
2023-02-22T09:07:41.388Z,10.01
2023-02-22T09:08:41.655Z,10.26
2023-02-22T09:10:01.506Z,10.53
2023-02-22T09:10:41.671Z,10.59
2023-02-22T09:11:41.429Z,10.56
2023-02-22T09:12:41.676Z,10.68
2023-02-22T09:13:41.439Z,10.89
2023-02-22T09:14:41.704Z,10.81
2023-02-22T09:15:41.456Z,10.91
2023-02-22T09:16:41.726Z,11.10
2023-02-22T09:17:41.464Z,11.35
2023-02-22T09:18:44.215Z,11.61
2023-02-22T09:20:01.466Z,11.72
2023-02-22T09:20:41.187Z,11.57
2023-02-22T09:21:41.463Z,11.39
2023-02-22T09:22:42.137Z,11.44
2023-02-22T09:23:41.457Z,11.58
2023-02-22T09:24:41.188Z,11.55
2023-02-22T09:25:41.505Z,11.79
2023-02-22T09:26:41.202Z,11.88
2023-02-22T09:27:41.463Z,12.10
2023-02-22T09:28:41.204Z,12.23
2023-02-22T09:30:01.479Z,12.27
2023-02-22T09:30:41.234Z,12.35
2023-02-22T09:31:41.753Z,12.57
2023-02-22T09:32:41.387Z,12.78
2023-02-22T09:33:41.474Z,13.08
2023-02-22T09:34:41.226Z,13.22
2023-02-22T09:35:41.496Z,13.17
2023-02-22T09:36:41.267Z,13.30
2023-02-22T09:37:41.517Z,13.20
2023-02-22T09:38:41.237Z,13.23
2023-02-22T09:40:01.588Z,13.07
2023-02-22T09:40:41.254Z,13.17
2023-02-22T09:41:41.032Z,13.10
2023-02-22T09:42:41.272Z,13.14
2023-02-22T09:43:41.024Z,13.32
2023-02-22T09:44:41.281Z,13.42
2023-02-22T09:45:41.153Z,13.54
2023-02-22T09:46:41.290Z,13.54
2023-02-22T09:47:42.551Z,13.75
2023-02-22T09:48:42.859Z,13.75
2023-02-22T09:50:01.198Z,13.91
2023-02-22T09:50:42.375Z,13.99
2023-02-22T09:51:42.749Z,14.00
2023-02-22T09:52:42.506Z,13.79
2023-02-22T09:53:42.807Z,13.64
2023-02-22T09:54:41.183Z,13.59
2023-02-22T09:55:41.104Z,13.81
2023-02-22T09:56:42.773Z,14.15
2023-02-22T09:57:42.578Z,14.43
2023-02-22T09:58:42.361Z,14.55
2023-02-22T10:00:01.221Z,14.69
2023-02-22T10:00:42.422Z,14.78
2023-02-22T10:01:41.776Z,14.84
2023-02-22T10:02:42.500Z,14.99
2023-02-22T10:03:41.569Z,15.11
2023-02-22T10:04:42.205Z,15.02
2023-02-22T10:05:42.601Z,15.16
2023-02-22T10:06:42.285Z,15.38
2023-02-22T10:07:41.760Z,15.44
2023-02-22T10:08:42.357Z,15.28
2023-02-22T10:10:01.184Z,15.17
2023-02-22T10:10:42.533Z,15.09
2023-02-22T10:11:42.280Z,15.10
2023-02-22T10:12:42.589Z,15.20
2023-02-22T10:13:42.392Z,15.32
2023-02-22T10:14:43.558Z,15.49
2023-02-22T10:15:42.441Z,15.59
2023-02-22T10:16:42.319Z,15.41
2023-02-22T10:17:43.454Z,15.34
2023-02-22T10:18:41.567Z,15.16
2023-02-22T10:20:01.166Z,15.25
2023-02-22T10:20:42.390Z,15.32
2023-02-22T10:21:42.168Z,15.49
2023-02-22T10:22:41.603Z,15.60
2023-02-22T10:23:41.498Z,15.68
2023-02-22T10:24:41.026Z,15.78
2023-02-22T10:25:41.281Z,15.90
2023-02-22T10:26:41.997Z,15.96
2023-02-22T10:27:42.255Z,15.89
2023-02-22T10:28:42.069Z,15.92
2023-02-22T10:30:01.766Z,16.07
2023-02-22T10:30:42.138Z,16.07
2023-02-22T10:31:41.347Z,15.93
2023-02-22T10:32:41.523Z,15.96
2023-02-22T10:33:42.047Z,15.96
2023-02-22T10:34:40.926Z,16.09
2023-02-22T10:35:42.112Z,16.25
2023-02-22T10:36:41.880Z,16.50
2023-02-22T10:37:41.358Z,16.73
2023-02-22T10:38:42.070Z,16.93
2023-02-22T10:40:00.899Z,17.03
2023-02-22T10:40:42.169Z,16.94
2023-02-22T10:41:42.023Z,17.00
2023-02-22T10:42:41.312Z,17.18
2023-02-22T10:43:41.284Z,17.36
2023-02-22T10:44:40.511Z,17.54
2023-02-22T10:45:42.316Z,17.48
2023-02-22T10:46:41.548Z,17.46
2023-02-22T10:47:41.074Z,17.51
2023-02-22T10:48:41.301Z,17.34
2023-02-22T10:50:00.545Z,17.21
2023-02-22T10:50:42.270Z,17.12
2023-02-22T10:51:41.597Z,17.06
2023-02-22T10:52:41.875Z,17.01
2023-02-22T10:53:42.214Z,16.86
2023-02-22T10:54:40.982Z,16.76
2023-02-22T10:55:41.828Z,16.75
2023-02-22T10:56:42.090Z,16.73
2023-02-22T10:57:41.159Z,16.76
2023-02-22T10:58:41.794Z,16.83
2023-02-22T11:00:00.628Z,16.97
2023-02-22T11:00:41.845Z,17.01
2023-02-22T11:01:41.343Z,17.15
2023-02-22T11:02:41.900Z,17.26
2023-02-22T11:03:41.700Z,17.21
2023-02-22T11:04:41.062Z,17.14
2023-02-22T11:05:41.818Z,17.19
2023-02-22T11:06:41.602Z,17.33
2023-02-22T11:07:40.810Z,17.56
2023-02-22T11:08:41.690Z,17.78
2023-02-22T11:10:00.529Z,17.87
2023-02-22T11:10:41.719Z,17.82
2023-02-22T11:11:42.023Z,17.77
2023-02-22T11:12:41.853Z,17.64
2023-02-22T11:13:41.738Z,17.55
2023-02-22T11:14:40.845Z,17.26
2023-02-22T11:15:40.985Z,16.91
2023-02-22T11:16:41.560Z,16.67
2023-02-22T11:17:41.821Z,16.43
2023-02-22T11:18:41.623Z,16.34
2023-02-22T11:20:00.459Z,16.12
2023-02-22T11:20:41.695Z,16.05
2023-02-22T11:21:41.480Z,15.90
2023-02-22T11:22:41.804Z,15.80
2023-02-22T11:23:44.342Z,15.69
2023-02-22T11:24:49.053Z,15.50
2023-02-22T11:25:41.827Z,15.35
2023-02-22T11:26:41.019Z,15.19
2023-02-22T11:27:40.359Z,15.13
2023-02-22T11:28:40.098Z,15.03
2023-02-22T11:30:02.627Z,14.95
2023-02-22T11:30:40.213Z,14.96
2023-02-22T11:31:40.520Z,14.77
2023-02-22T11:32:40.116Z,14.80
2023-02-22T11:33:39.910Z,14.84
2023-02-22T11:34:40.144Z,14.88
2023-02-22T11:35:39.925Z,14.99
2023-02-22T11:36:40.171Z,15.06
2023-02-22T11:37:39.928Z,15.03
2023-02-22T11:38:40.176Z,15.10
2023-02-22T11:40:01.459Z,15.14
2023-02-22T11:40:40.271Z,15.16
2023-02-22T11:41:40.012Z,15.16
2023-02-22T11:42:39.774Z,15.23
2023-02-22T11:43:40.020Z,15.29
2023-02-22T11:44:39.766Z,15.31
2023-02-22T11:45:44.259Z,15.34
2023-02-22T11:46:40.805Z,15.25
2023-02-22T11:47:40.070Z,15.27
2023-02-22T11:48:39.834Z,15.21
2023-02-22T11:50:00.831Z,15.20
2023-02-22T11:50:39.833Z,15.23
2023-02-22T11:51:40.096Z,15.34
2023-02-22T11:52:39.857Z,15.41
2023-02-22T11:53:40.134Z,15.46
2023-02-22T11:54:39.931Z,15.47
2023-02-22T11:55:43.045Z,15.51
2023-02-22T11:56:40.565Z,15.47
2023-02-22T11:57:39.681Z,15.53
2023-02-22T11:58:39.947Z,15.62
2023-02-22T12:00:01.262Z,15.72
2023-02-22T12:00:40.007Z,15.67
2023-02-22T12:01:39.761Z,15.60
2023-02-22T12:02:41.685Z,15.67
2023-02-22T12:03:40.891Z,15.59
2023-02-22T12:04:39.823Z,15.59
2023-02-22T12:05:39.814Z,15.56
2023-02-22T12:06:39.541Z,15.51
2023-02-22T12:07:39.792Z,15.47
2023-02-22T12:08:39.524Z,15.35
2023-02-22T12:10:00.512Z,15.27
2023-02-22T12:10:39.615Z,15.21
2023-02-22T12:11:39.876Z,15.16
2023-02-22T12:12:39.608Z,15.02
2023-02-22T12:13:39.883Z,14.96
2023-02-22T12:14:39.628Z,14.89
2023-02-22T12:15:39.892Z,14.86
2023-02-22T12:16:39.635Z,14.78
2023-02-22T12:17:41.792Z,14.69
2023-02-22T12:18:39.628Z,14.61
2023-02-22T12:20:00.143Z,14.57
2023-02-22T12:20:39.720Z,14.55
2023-02-22T12:21:39.396Z,14.51
2023-02-22T12:22:39.674Z,14.50
2023-02-22T12:23:39.410Z,14.50
2023-02-22T12:24:39.660Z,14.40
2023-02-22T12:25:40.394Z,14.37
2023-02-22T12:26:39.652Z,14.33
2023-02-22T12:27:39.380Z,14.28
2023-02-22T12:28:39.711Z,14.22
2023-02-22T12:30:00.859Z,14.17
2023-02-22T12:30:39.676Z,14.14
2023-02-22T12:31:39.486Z,14.10
2023-02-22T12:32:39.716Z,14.10
2023-02-22T12:33:39.478Z,14.06
2023-02-22T12:34:39.793Z,14.03
2023-02-22T12:35:39.431Z,13.97
2023-02-22T12:36:39.690Z,13.89
2023-02-22T12:37:39.430Z,13.84
2023-02-22T12:38:39.165Z,13.79
2023-02-22T12:40:00.896Z,13.71
2023-02-22T12:40:39.196Z,13.67
2023-02-22T12:41:39.476Z,13.59
2023-02-22T12:42:39.217Z,13.52
2023-02-22T12:43:39.478Z,13.46
2023-02-22T12:44:39.237Z,13.42
2023-02-22T12:45:39.471Z,13.39
2023-02-22T12:46:39.265Z,13.36
2023-02-22T12:47:39.498Z,13.30
2023-02-22T12:48:39.250Z,13.26
2023-02-22T12:50:01.013Z,13.20
2023-02-22T12:50:39.289Z,13.17
2023-02-22T12:51:39.521Z,13.12
2023-02-22T12:52:39.292Z,13.10
2023-02-22T12:53:39.529Z,13.08
2023-02-22T12:54:39.322Z,13.01
2023-02-22T12:55:40.054Z,12.96
2023-02-22T12:56:39.343Z,12.92
2023-02-22T12:57:39.110Z,12.86
2023-02-22T12:58:39.367Z,12.82
2023-02-22T12:59:59.884Z,12.77
2023-02-22T13:00:39.417Z,12.75
2023-02-22T13:01:39.261Z,12.71
2023-02-22T13:02:39.416Z,12.65
2023-02-22T13:03:39.163Z,12.62
2023-02-22T13:04:38.933Z,12.59
2023-02-22T13:05:39.687Z,12.56
2023-02-22T13:06:38.954Z,12.52
2023-02-22T13:07:39.198Z,12.49
2023-02-22T13:08:38.985Z,12.50
2023-02-22T13:10:00.682Z,12.50